Michy Batshuayi

Olheiro - KAA Gent
4 Nov 2027
Quinta-feira
Processo

Personalidade

Adaptabilidade (10) Ambição (2) Controvérsia (14) Lealdade (16) Pressão (17) Profissionalismo (18) Espírito Esportivo (12) Temperamento (6)

Perfil

Estilo de Treinamento Democrático
Licença Continental C
Determinação 8
Gestão de Pessoas 5
Motivação 6
Disciplina 5
Satisfação no Trabalho
100%
Fadiga
0%
Função Olheiro
Salário 79.1K p/s
Contrato 14.03.2028

Desempenho

Comportamento Bom
Eficácia do Treinamento
51%
Desenvolvimento do Jogador
50%
Prevenção de Lesões
65%
Implementação Tática
70%

Eventos Recentes

Participou de uma reunião de recrutamento agora
Recomendou um alvo de transferência agora
Recomendou um alvo de transferência agora
Recomendou um alvo de transferência agora
Recomendou um alvo de transferência 7d atrás
Recomendou um alvo de transferência 7d atrás
Participou de uma reunião de recrutamento 7d atrás
Recomendou um alvo de transferência 7d atrás

Monitorando agora

61
Jogador Clube Status Habilidade Confiança Observado Última observação Último voto
Mauro Arambarri River Plate Perdido 157 / 151 40% 1 31.08.2027 -
Eduard Löwen San Jose Earthquakes Ativo 130 / 130 40% 1 31.08.2027 -
Nikola Mituljikić Zulte Waregem Ativo 115 / 118 52% 1 / 1m 25.08.2027 -
Elías Santini Zulte Waregem Ativo 99 / 104 42% 1 / 1m 25.08.2027 -
Kings Kangwa Panathinaikos Ativo 147 / 136 40% 1 23.08.2027 -
Walid Ismail Al Shabab Perdido 153 / 153 40% 1 23.08.2027 -
James Cardona La Equidad Ativo 141 / 143 40% 1 23.08.2027 -
Aidan Morris Middlesbrough Ativo 133 / 135 40% 1 09.08.2027 -
Darlin Yongwa Norwich City Ativo 131 / 127 40% 1 09.08.2027 -
Atsuki Ito Bolton Wanderers Ativo 126 / 125 40% 1 09.08.2027 -
Adnan Courtois KV Oostende Perdido 134 / 137 79% 1 03.06.2027 -
Pedro de la Vega FC Dallas Negociando 133 / 134 66% 1 01.06.2027 Aprovar
Facundo Torres LOSC Lille Ativo 134 / 134 67% 1 01.06.2027 Aprovar
Marvin Keller Bayer Leverkusen Negociando 136 / 137 67% 1 01.06.2027 -
Luiz Henrique West Ham United Ativo 142 / 143 68% 1 01.06.2027 Aprovar
Nicolás Fernández Mercau Shakhtar Ativo 134 / 134 67% 1 01.06.2027 Aprovar
Tom Fellows Southampton Ativo 134 / 132 40% 4 31.05.2027 -
Finn Azaz Southampton Ativo 136 / 123 40% 2 31.05.2027 -
Harry Wilson Leeds United Ativo 145 / 139 40% 3 29.05.2027 -
Othmane Maamma Watford Ativo 123 / 131 40% 2 28.05.2027 -
Carlos Vicente Birmingham Ativo 141 / 138 40% 4 26.05.2027 -
Giacomo Raspadori Atalanta Ativo 150 / 146 40% 8 26.05.2027 -
Léo Scienza Southampton Ativo 142 / 139 40% 3 26.05.2027 -
Tommy Conway Middlesbrough Ativo 129 / 125 40% 1 25.05.2027 -
Assane Diao Lazio Ativo 142 / 143 40% 3 23.05.2027 -
Isaiah Jones Luton Town Ativo 127 / 122 40% 1 20.05.2027 -
Hany Mukhtar Spezia Ativo 142 / 133 40% 4 19.05.2027 -
Kwadwo Baah Watford Ativo 128 / 124 40% 1 18.05.2027 -
Sorba Thomas Stoke City Ativo 136 / 124 40% 3 17.05.2027 -
Ismaïla Sarr Crystal Palace Ativo 154 / 147 40% 2 14.05.2027 -
Zian Flemming Ipswich Town Ativo 136 / 138 40% 1 10.05.2027 -
Ilias Chair Queens Park Rangers Ativo 132 / 125 40% 1 09.05.2027 -
David Brooks Bournemouth Ativo 138 / 145 40% 1 08.05.2027 -
Ethan Galbraith Swansea City Ativo 135 / 130 40% 1 07.05.2027 -
Jack McGlynn Stoke City Ativo 129 / 133 40% 2 02.05.2027 -
Georginio Rutter Brighton Ativo 148 / 154 40% 3 01.05.2027 -
Ryan Sessegnon Fulham Ativo 151 / 144 40% 1 01.05.2027 -
Carlos Alcaraz Everton Ativo 149 / 149 40% 3 30.04.2027 -
Marco Asensio Fenerbahce Ativo 152 / 146 40% 5 25.04.2027 -
Leroy Sané Galatasaray Ativo 157 / 151 40% 2 24.04.2027 -
Kerem Aktürkoğlu Fenerbahce Ativo 150 / 132 40% 1 24.04.2027 -
Luís Henrique Inter Ativo 145 / 147 40% 1 23.04.2027 -
Derensili Sanches Fernandes Huddersfield Town Ativo 129 / 125 40% 3 22.04.2027 -
Ianis Hagi Alanyaspor Ativo 138 / 125 40% 3 22.04.2027 -
Reiss Nelson Aston Villa Ativo 140 / 148 40% 1 19.04.2027 -
Riley McGree Middlesbrough Ativo 138 / 123 40% 2 18.04.2027 -
Jack Rudoni Coventry City Ativo 137 / 136 40% 2 17.04.2027 -
Kasey McAteer Ipswich Town Ativo 131 / 130 40% 1 17.04.2027 -
Félix Lemaréchal Club Brugge Ativo 137 / 130 40% 2 13.04.2027 -
Kevin Fulham Ativo 142 / 142 40% 2 05.04.2027 -
Amine Adli Bournemouth Ativo 150 / 139 40% 1 04.04.2027 -
Morgan Whittaker Middlesbrough Ativo 137 / 129 40% 1 03.04.2027 -
Adriano Bertaccini Anderlecht Ativo 132 / 131 40% 2 29.03.2027 -
Jan Virgili Club Brugge Perdido 137 / 136 40% 2 28.03.2027 -
Matt O'Riley Brighton Ativo 142 / 142 40% 1 27.03.2027 -
Jean-Luc Dompé Konyaspor Ativo 125 / 131 40% 1 26.03.2027 -
Tristan Degreef Anderlecht Ativo 122 / 128 40% 1 20.03.2027 Mais informações
Marquinhos Spartak Moscow Ativo 137 / 137 40% 1 20.03.2027 -
Curtis Jones Inter Ativo 164 / 155 40% 1 19.03.2027 -
Jarrod Bowen West Ham United Ativo 152 / 157 40% 1 19.03.2027 -
Toni Fruk KV Mechelen Ativo 129 / 129 40% 1 31.12.2026 -